sensor_id;sensor_type;location;lat;lon;timestamp;pressure;altitude;pressure_sealevel;temperature;humidity
17311;BME280;8773;43.300;0.394;2023-04-16T00:01:03;100710.81;;;7.96;67.19
17311;BME280;8773;43.300;0.394;2023-04-16T00:03:31;100712.97;;;7.91;67.21
17311;BME280;8773;43.300;0.394;2023-04-16T00:05:59;100718.50;;;7.88;67.13
17311;BME280;8773;43.300;0.394;2023-04-16T00:08:27;100712.56;;;7.84;67.17
17311;BME280;8773;43.300;0.394;2023-04-16T00:10:57;100704.88;;;7.92;67.00
17311;BME280;8773;43.300;0.394;2023-04-16T00:13:25;100706.78;;;7.90;67.56
17311;BME280;8773;43.300;0.394;2023-04-16T00:15:53;100709.50;;;7.77;68.31
17311;BME280;8773;43.300;0.394;2023-04-16T00:18:21;100703.47;;;7.75;68.22
17311;BME280;8773;43.300;0.394;2023-04-16T00:20:50;100706.75;;;7.79;67.87
17311;BME280;8773;43.300;0.394;2023-04-16T00:23:19;100710.59;;;7.75;68.35
17311;BME280;8773;43.300;0.394;2023-04-16T00:25:47;100704.19;;;7.77;67.96
17311;BME280;8773;43.300;0.394;2023-04-16T00:28:16;100702.38;;;7.78;67.14
17311;BME280;8773;43.300;0.394;2023-04-16T00:30:44;100700.06;;;7.73;67.23
17311;BME280;8773;43.300;0.394;2023-04-16T00:33:12;100692.94;;;7.74;67.51
17311;BME280;8773;43.300;0.394;2023-04-16T00:35:41;100690.78;;;7.79;67.35
17311;BME280;8773;43.300;0.394;2023-04-16T00:38:12;100689.44;;;7.73;67.32
17311;BME280;8773;43.300;0.394;2023-04-16T00:40:40;100691.59;;;7.68;67.86
17311;BME280;8773;43.300;0.394;2023-04-16T00:43:08;100692.44;;;7.69;67.52
17311;BME280;8773;43.300;0.394;2023-04-16T00:45:37;100684.19;;;7.61;68.19
17311;BME280;8773;43.300;0.394;2023-04-16T00:48:05;100679.47;;;7.64;68.59
17311;BME280;8773;43.300;0.394;2023-04-16T00:50:34;100690.72;;;7.68;68.29
17311;BME280;8773;43.300;0.394;2023-04-16T00:53:02;100685.41;;;7.68;68.61
17311;BME280;8773;43.300;0.394;2023-04-16T00:55:30;100680.88;;;7.81;68.36
17311;BME280;8773;43.300;0.394;2023-04-16T00:57:58;100683.19;;;7.86;67.97
17311;BME280;8773;43.300;0.394;2023-04-16T01:00:26;100689.25;;;7.88;68.81
17311;BME280;8773;43.300;0.394;2023-04-16T01:02:58;100684.13;;;7.73;68.64
17311;BME280;8773;43.300;0.394;2023-04-16T01:05:27;100683.28;;;7.73;68.96
17311;BME280;8773;43.300;0.394;2023-04-16T01:07:57;100676.41;;;7.82;68.87
17311;BME280;8773;43.300;0.394;2023-04-16T01:10:26;100681.28;;;7.88;68.31
17311;BME280;8773;43.300;0.394;2023-04-16T01:12:54;100670.81;;;7.97;67.68
17311;BME280;8773;43.300;0.394;2023-04-16T01:15:22;100674.94;;;8.01;67.12
17311;BME280;8773;43.300;0.394;2023-04-16T01:17:50;100669.91;;;7.86;68.22
17311;BME280;8773;43.300;0.394;2023-04-16T01:20:19;100679.94;;;7.82;68.71
17311;BME280;8773;43.300;0.394;2023-04-16T01:22:49;100672.84;;;7.94;67.94
17311;BME280;8773;43.300;0.394;2023-04-16T01:25:17;100668.38;;;7.94;68.02
17311;BME280;8773;43.300;0.394;2023-04-16T01:27:48;100672.19;;;7.79;68.09
17311;BME280;8773;43.300;0.394;2023-04-16T01:30:19;100673.66;;;7.83;68.00
17311;BME280;8773;43.300;0.394;2023-04-16T01:32:47;100667.19;;;7.98;67.59
17311;BME280;8773;43.300;0.394;2023-04-16T01:35:15;100666.22;;;7.99;67.98
17311;BME280;8773;43.300;0.394;2023-04-16T01:37:43;100666.59;;;8.06;67.54
17311;BME280;8773;43.300;0.394;2023-04-16T01:40:13;100667.03;;;7.89;67.22
17311;BME280;8773;43.300;0.394;2023-04-16T01:42:41;100657.97;;;7.91;67.74
17311;BME280;8773;43.300;0.394;2023-04-16T01:45:10;100662.25;;;8.05;66.89
17311;BME280;8773;43.300;0.394;2023-04-16T01:47:38;100668.66;;;8.02;67.29
17311;BME280;8773;43.300;0.394;2023-04-16T01:50:07;100669.25;;;8.06;66.50
17311;BME280;8773;43.300;0.394;2023-04-16T01:52:35;100661.97;;;7.97;67.24
17311;BME280;8773;43.300;0.394;2023-04-16T01:55:04;100664.13;;;7.92;66.99
17311;BME280;8773;43.300;0.394;2023-04-16T01:57:36;100661.50;;;8.03;66.57
17311;BME280;8773;43.300;0.394;2023-04-16T02:00:07;100666.94;;;8.01;67.11
17311;BME280;8773;43.300;0.394;2023-04-16T02:02:38;100662.94;;;7.96;67.17
17311;BME280;8773;43.300;0.394;2023-04-16T02:05:07;100661.66;;;7.77;68.04
17311;BME280;8773;43.300;0.394;2023-04-16T02:07:35;100667.09;;;7.76;67.82
17311;BME280;8773;43.300;0.394;2023-04-16T02:10:04;100661.94;;;7.86;67.53
17311;BME280;8773;43.300;0.394;2023-04-16T02:12:32;100663.16;;;7.93;68.18
17311;BME280;8773;43.300;0.394;2023-04-16T02:15:02;100664.19;;;8.03;67.13
17311;BME280;8773;43.300;0.394;2023-04-16T02:17:30;100655.22;;;8.04;67.11
17311;BME280;8773;43.300;0.394;2023-04-16T02:19:58;100662.47;;;8.13;66.81
17311;BME280;8773;43.300;0.394;2023-04-16T02:22:28;100658.94;;;7.90;67.76
17311;BME280;8773;43.300;0.394;2023-04-16T02:24:56;100663.69;;;8.09;66.89
17311;BME280;8773;43.300;0.394;2023-04-16T02:27:24;100661.38;;;7.93;67.53
17311;BME280;8773;43.300;0.394;2023-04-16T02:29:52;100649.66;;;8.07;66.88
17311;BME280;8773;43.300;0.394;2023-04-16T02:32:22;100652.06;;;8.10;67.11
17311;BME280;8773;43.300;0.394;2023-04-16T02:34:50;100650.03;;;8.14;66.82
17311;BME280;8773;43.300;0.394;2023-04-16T02:37:18;100643.84;;;8.13;66.78
17311;BME280;8773;43.300;0.394;2023-04-16T02:39:46;100646.03;;;8.08;66.81
17311;BME280;8773;43.300;0.394;2023-04-16T02:42:15;100642.16;;;8.12;66.12
17311;BME280;8773;43.300;0.394;2023-04-16T02:44:43;100642.78;;;8.16;65.57
17311;BME280;8773;43.300;0.394;2023-04-16T02:47:11;100638.91;;;7.97;66.85
17311;BME280;8773;43.300;0.394;2023-04-16T02:49:40;100641.59;;;7.73;67.90
17311;BME280;8773;43.300;0.394;2023-04-16T02:52:11;100633.09;;;7.68;67.78
17311;BME280;8773;43.300;0.394;2023-04-16T02:54:41;100635.53;;;7.60;67.85
17311;BME280;8773;43.300;0.394;2023-04-16T02:57:09;100637.97;;;7.74;67.01
17311;BME280;8773;43.300;0.394;2023-04-16T02:59:37;100634.56;;;7.72;67.75
17311;BME280;8773;43.300;0.394;2023-04-16T03:02:05;100626.81;;;7.69;67.70
17311;BME280;8773;43.300;0.394;2023-04-16T03:04:33;100630.16;;;7.49;68.74
17311;BME280;8773;43.300;0.394;2023-04-16T03:07:02;100630.59;;;7.43;68.55
17311;BME280;8773;43.300;0.394;2023-04-16T03:09:30;100624.09;;;7.47;67.96
17311;BME280;8773;43.300;0.394;2023-04-16T03:11:58;100623.88;;;7.50;67.71
17311;BME280;8773;43.300;0.394;2023-04-16T03:14:30;100624.72;;;7.51;67.44
17311;BME280;8773;43.300;0.394;2023-04-16T03:16:58;100629.88;;;7.41;67.57
17311;BME280;8773;43.300;0.394;2023-04-16T03:19:26;100626.69;;;7.36;68.72
17311;BME280;8773;43.300;0.394;2023-04-16T03:21:54;100620.25;;;7.03;69.46
17311;BME280;8773;43.300;0.394;2023-04-16T03:24:24;100629.94;;;6.92;70.28
17311;BME280;8773;43.300;0.394;2023-04-16T03:26:52;100627.19;;;6.93;70.60
17311;BME280;8773;43.300;0.394;2023-04-16T03:29:20;100623.06;;;6.89;70.01
17311;BME280;8773;43.300;0.394;2023-04-16T03:31:48;100629.91;;;7.04;69.24
17311;BME280;8773;43.300;0.394;2023-04-16T03:34:16;100624.06;;;7.12;69.69
17311;BME280;8773;43.300;0.394;2023-04-16T03:36:44;100617.94;;;7.23;68.87
17311;BME280;8773;43.300;0.394;2023-04-16T03:39:12;100622.28;;;7.24;68.64
17311;BME280;8773;43.300;0.394;2023-04-16T03:41:41;100623.13;;;7.24;68.40
17311;BME280;8773;43.300;0.394;2023-04-16T03:44:09;100616.53;;;7.30;67.48
17311;BME280;8773;43.300;0.394;2023-04-16T03:46:37;100626.06;;;7.32;67.92
17311;BME280;8773;43.300;0.394;2023-04-16T03:49:05;100618.00;;;7.34;68.14
17311;BME280;8773;43.300;0.394;2023-04-16T03:51:34;100609.22;;;7.21;67.50
17311;BME280;8773;43.300;0.394;2023-04-16T03:54:02;100613.34;;;7.25;67.46
17311;BME280;8773;43.300;0.394;2023-04-16T03:56:30;100613.94;;;7.17;67.94
17311;BME280;8773;43.300;0.394;2023-04-16T03:58:59;100617.78;;;7.13;67.90
17311;BME280;8773;43.300;0.394;2023-04-16T04:01:27;100616.66;;;7.04;68.71
17311;BME280;8773;43.300;0.394;2023-04-16T04:03:55;100620.69;;;6.97;67.78
17311;BME280;8773;43.300;0.394;2023-04-16T04:06:23;100613.72;;;6.84;69.37
17311;BME280;8773;43.300;0.394;2023-04-16T04:08:52;100624.06;;;6.75;69.00
17311;BME280;8773;43.300;0.394;2023-04-16T04:11:20;100622.97;;;6.78;69.42
17311;BME280;8773;43.300;0.394;2023-04-16T04:13:48;100615.00;;;6.78;69.05
17311;BME280;8773;43.300;0.394;2023-04-16T04:16:17;100612.34;;;6.78;68.91
17311;BME280;8773;43.300;0.394;2023-04-16T04:18:45;100610.44;;;6.80;68.38
17311;BME280;8773;43.300;0.394;2023-04-16T04:21:13;100614.78;;;6.32;70.46
17311;BME280;8773;43.300;0.394;2023-04-16T04:23:41;100618.78;;;6.37;70.68
17311;BME280;8773;43.300;0.394;2023-04-16T04:26:09;100608.91;;;6.39;69.65
17311;BME280;8773;43.300;0.394;2023-04-16T04:28:37;100604.69;;;6.50;69.75
17311;BME280;8773;43.300;0.394;2023-04-16T04:31:05;100610.72;;;6.52;69.83
17311;BME280;8773;43.300;0.394;2023-04-16T04:33:35;100614.53;;;6.60;68.35
17311;BME280;8773;43.300;0.394;2023-04-16T04:36:03;100610.94;;;6.61;68.95
17311;BME280;8773;43.300;0.394;2023-04-16T04:38:34;100606.59;;;6.60;68.15
17311;BME280;8773;43.300;0.394;2023-04-16T04:41:02;100604.13;;;6.57;69.04
17311;BME280;8773;43.300;0.394;2023-04-16T04:43:30;100608.06;;;6.39;69.15
17311;BME280;8773;43.300;0.394;2023-04-16T04:45:58;100611.44;;;6.41;69.31
17311;BME280;8773;43.300;0.394;2023-04-16T04:48:26;100605.22;;;6.29;70.08
17311;BME280;8773;43.300;0.394;2023-04-16T04:50:55;100593.31;;;6.35;70.80
17311;BME280;8773;43.300;0.394;2023-04-16T04:53:23;100604.25;;;6.30;70.42
17311;BME280;8773;43.300;0.394;2023-04-16T04:55:51;100610.75;;;6.26;70.50
17311;BME280;8773;43.300;0.394;2023-04-16T04:58:30;100616.16;;;6.12;70.73
17311;BME280;8773;43.300;0.394;2023-04-16T05:00:58;100612.72;;;5.97;70.83
17311;BME280;8773;43.300;0.394;2023-04-16T05:03:27;100612.97;;;6.07;70.18
17311;BME280;8773;43.300;0.394;2023-04-16T05:05:56;100610.94;;;5.98;71.14
17311;BME280;8773;43.300;0.394;2023-04-16T05:08:24;100607.75;;;6.05;70.92
17311;BME280;8773;43.300;0.394;2023-04-16T05:10:52;100609.25;;;6.09;70.07
17311;BME280;8773;43.300;0.394;2023-04-16T05:13:20;100613.69;;;6.09;69.91
17311;BME280;8773;43.300;0.394;2023-04-16T05:15:48;100605.31;;;6.15;70.48
17311;BME280;8773;43.300;0.394;2023-04-16T05:18:16;100609.78;;;6.15;69.49
17311;BME280;8773;43.300;0.394;2023-04-16T05:20:44;100608.50;;;6.20;69.48
17311;BME280;8773;43.300;0.394;2023-04-16T05:23:14;100609.25;;;6.22;69.20
17311;BME280;8773;43.300;0.394;2023-04-16T05:25:42;100604.69;;;6.24;69.61
17311;BME280;8773;43.300;0.394;2023-04-16T05:28:10;100610.00;;;6.24;69.45
17311;BME280;8773;43.300;0.394;2023-04-16T05:30:38;100612.63;;;5.99;70.79
17311;BME280;8773;43.300;0.394;2023-04-16T05:33:06;100613.38;;;6.01;71.02
17311;BME280;8773;43.300;0.394;2023-04-16T05:35:34;100614.19;;;5.63;72.14
17311;BME280;8773;43.300;0.394;2023-04-16T05:38:02;100616.25;;;5.85;72.11
17311;BME280;8773;43.300;0.394;2023-04-16T05:40:33;100624.31;;;6.22;70.55
17311;BME280;8773;43.300;0.394;2023-04-16T05:43:04;100625.88;;;6.37;69.90
17311;BME280;8773;43.300;0.394;2023-04-16T05:45:32;100628.66;;;6.61;69.22
17311;BME280;8773;43.300;0.394;2023-04-16T05:48:05;100627.47;;;6.65;69.26
17311;BME280;8773;43.300;0.394;2023-04-16T05:50:34;100627.78;;;6.73;68.97
17311;BME280;8773;43.300;0.394;2023-04-16T05:53:04;100628.38;;;6.76;68.06
17311;BME280;8773;43.300;0.394;2023-04-16T05:55:34;100626.59;;;6.77;67.73
17311;BME280;8773;43.300;0.394;2023-04-16T05:58:02;100626.63;;;7.01;67.56
17311;BME280;8773;43.300;0.394;2023-04-16T06:00:31;100628.84;;;7.07;67.43
17311;BME280;8773;43.300;0.394;2023-04-16T06:02:59;100634.84;;;7.22;66.39
17311;BME280;8773;43.300;0.394;2023-04-16T06:05:33;100637.88;;;7.04;66.82
17311;BME280;8773;43.300;0.394;2023-04-16T06:08:01;100639.84;;;6.77;68.30
17311;BME280;8773;43.300;0.394;2023-04-16T06:10:29;100643.31;;;7.27;66.80
17311;BME280;8773;43.300;0.394;2023-04-16T06:12:59;100643.41;;;7.73;65.90
17311;BME280;8773;43.300;0.394;2023-04-16T06:15:27;100640.78;;;8.30;64.70
17311;BME280;8773;43.300;0.394;2023-04-16T06:17:55;100650.22;;;8.57;63.23
17311;BME280;8773;43.300;0.394;2023-04-16T06:20:26;100647.41;;;9.14;62.75
17311;BME280;8773;43.300;0.394;2023-04-16T06:22:54;100645.84;;;9.75;60.13
17311;BME280;8773;43.300;0.394;2023-04-16T06:25:22;100646.00;;;10.36;57.99
17311;BME280;8773;43.300;0.394;2023-04-16T06:27:50;100634.09;;;10.81;56.00
17311;BME280;8773;43.300;0.394;2023-04-16T06:30:20;100641.38;;;11.19;55.63
17311;BME280;8773;43.300;0.394;2023-04-16T06:32:48;100641.19;;;11.51;55.14
17311;BME280;8773;43.300;0.394;2023-04-16T06:35:16;100642.72;;;11.92;53.43
17311;BME280;8773;43.300;0.394;2023-04-16T06:37:45;100639.91;;;11.84;52.45
17311;BME280;8773;43.300;0.394;2023-04-16T06:40:14;100631.81;;;12.22;52.42
17311;BME280;8773;43.300;0.394;2023-04-16T06:42:42;100638.91;;;12.41;51.15
17311;BME280;8773;43.300;0.394;2023-04-16T06:45:12;100635.59;;;12.76;51.62
17311;BME280;8773;43.300;0.394;2023-04-16T06:47:41;100630.03;;;13.15;50.30
17311;BME280;8773;43.300;0.394;2023-04-16T06:50:10;100626.81;;;13.29;49.12
17311;BME280;8773;43.300;0.394;2023-04-16T06:52:38;100628.00;;;13.62;48.42
17311;BME280;8773;43.300;0.394;2023-04-16T06:55:07;100628.81;;;13.98;47.72
17311;BME280;8773;43.300;0.394;2023-04-16T06:57:35;100627.66;;;14.26;47.06
17311;BME280;8773;43.300;0.394;2023-04-16T07:00:04;100624.19;;;14.34;46.95
17311;BME280;8773;43.300;0.394;2023-04-16T07:02:32;100624.63;;;14.47;46.36
17311;BME280;8773;43.300;0.394;2023-04-16T07:05:02;100612.34;;;14.45;46.41
17311;BME280;8773;43.300;0.394;2023-04-16T07:07:31;100610.34;;;14.47;46.25
17311;BME280;8773;43.300;0.394;2023-04-16T07:09:59;100610.72;;;14.86;45.60
17311;BME280;8773;43.300;0.394;2023-04-16T07:12:27;100615.28;;;15.01;45.37
17311;BME280;8773;43.300;0.394;2023-04-16T07:14:55;100619.34;;;14.37;45.17
17311;BME280;8773;43.300;0.394;2023-04-16T07:17:25;100622.31;;;13.65;46.26
17311;BME280;8773;43.300;0.394;2023-04-16T07:19:53;100625.34;;;14.31;47.42
17311;BME280;8773;43.300;0.394;2023-04-16T07:22:23;100615.66;;;15.06;45.18
17311;BME280;8773;43.300;0.394;2023-04-16T07:24:51;100615.44;;;15.75;44.24
17311;BME280;8773;43.300;0.394;2023-04-16T07:27:19;100615.03;;;16.34;42.87
17311;BME280;8773;43.300;0.394;2023-04-16T07:29:47;100611.31;;;16.52;41.16
17311;BME280;8773;43.300;0.394;2023-04-16T07:32:16;100610.16;;;16.38;42.11
17311;BME280;8773;43.300;0.394;2023-04-16T07:34:44;100615.78;;;16.20;41.63
17311;BME280;8773;43.300;0.394;2023-04-16T07:37:12;100615.44;;;16.15;41.78
17311;BME280;8773;43.300;0.394;2023-04-16T07:39:41;100610.63;;;16.50;42.14
17311;BME280;8773;43.300;0.394;2023-04-16T07:42:09;100603.59;;;17.19;40.84
17311;BME280;8773;43.300;0.394;2023-04-16T07:44:37;100610.50;;;17.52;40.56
17311;BME280;8773;43.300;0.394;2023-04-16T07:47:05;100615.31;;;17.88;39.74
17311;BME280;8773;43.300;0.394;2023-04-16T07:49:33;100606.34;;;18.40;39.38
17311;BME280;8773;43.300;0.394;2023-04-16T07:52:01;100603.13;;;18.74;37.60
17311;BME280;8773;43.300;0.394;2023-04-16T07:54:29;100595.56;;;18.69;37.23
17311;BME280;8773;43.300;0.394;2023-04-16T07:56:59;100598.81;;;18.64;37.09
17311;BME280;8773;43.300;0.394;2023-04-16T07:59:27;100597.47;;;18.01;37.78
17311;BME280;8773;43.300;0.394;2023-04-16T08:01:56;100604.72;;;18.01;38.89
17311;BME280;8773;43.300;0.394;2023-04-16T08:04:24;100596.03;;;17.45;38.54
17311;BME280;8773;43.300;0.394;2023-04-16T08:06:53;100596.03;;;16.83;40.00
17311;BME280;8773;43.300;0.394;2023-04-16T08:09:22;100596.06;;;16.28;40.66
17311;BME280;8773;43.300;0.394;2023-04-16T08:11:50;100621.09;;;14.47;43.27
17311;BME280;8773;43.300;0.394;2023-04-16T08:14:20;100615.72;;;13.95;45.41
17311;BME280;8773;43.300;0.394;2023-04-16T08:16:48;100615.94;;;13.66;46.14
17311;BME280;8773;43.300;0.394;2023-04-16T08:19:16;100613.88;;;13.95;47.02
17311;BME280;8773;43.300;0.394;2023-04-16T08:21:47;100618.25;;;13.96;46.41
17311;BME280;8773;43.300;0.394;2023-04-16T08:24:15;100613.19;;;14.19;46.61
17311;BME280;8773;43.300;0.394;2023-04-16T08:26:43;100613.28;;;14.35;45.99
17311;BME280;8773;43.300;0.394;2023-04-16T08:29:11;100626.28;;;14.22;46.09
17311;BME280;8773;43.300;0.394;2023-04-16T08:31:40;100624.38;;;13.89;46.79
17311;BME280;8773;43.300;0.394;2023-04-16T08:34:09;100628.22;;;13.51;47.23
17311;BME280;8773;43.300;0.394;2023-04-16T08:36:39;100630.94;;;13.05;49.14
17311;BME280;8773;43.300;0.394;2023-04-16T08:39:07;100625.84;;;13.48;49.14
17311;BME280;8773;43.300;0.394;2023-04-16T08:41:37;100627.53;;;13.84;48.34
17311;BME280;8773;43.300;0.394;2023-04-16T08:44:08;100625.34;;;13.34;48.53
17311;BME280;8773;43.300;0.394;2023-04-16T08:46:40;100627.50;;;13.31;49.00
17311;BME280;8773;43.300;0.394;2023-04-16T08:49:14;100622.69;;;13.17;49.71
17311;BME280;8773;43.300;0.394;2023-04-16T08:51:49;100625.06;;;13.20;50.27
17311;BME280;8773;43.300;0.394;2023-04-16T08:54:25;100618.41;;;13.41;49.64
17311;BME280;8773;43.300;0.394;2023-04-16T08:56:58;100624.94;;;13.74;49.25
17311;BME280;8773;43.300;0.394;2023-04-16T08:59:29;100625.75;;;13.93;48.56
17311;BME280;8773;43.300;0.394;2023-04-16T09:01:59;100625.91;;;13.91;48.72
17311;BME280;8773;43.300;0.394;2023-04-16T09:04:28;100624.72;;;13.68;48.39
17311;BME280;8773;43.300;0.394;2023-04-16T09:06:57;100624.38;;;13.89;47.12
17311;BME280;8773;43.300;0.394;2023-04-16T09:09:25;100631.53;;;13.62;47.44
17311;BME280;8773;43.300;0.394;2023-04-16T09:11:54;100634.34;;;13.43;47.97
17311;BME280;8773;43.300;0.394;2023-04-16T09:14:22;100624.94;;;13.74;48.02
17311;BME280;8773;43.300;0.394;2023-04-16T09:16:52;100626.69;;;13.48;47.83
17311;BME280;8773;43.300;0.394;2023-04-16T09:19:22;100631.53;;;13.62;47.79
17311;BME280;8773;43.300;0.394;2023-04-16T09:21:50;100629.44;;;13.92;47.01
17311;BME280;8773;43.300;0.394;2023-04-16T09:24:18;100629.06;;;13.87;47.32
17311;BME280;8773;43.300;0.394;2023-04-16T09:26:47;100622.44;;;13.99;47.37
17311;BME280;8773;43.300;0.394;2023-04-16T09:29:32;100623.16;;;14.01;48.04
17311;BME280;8773;43.300;0.394;2023-04-16T09:32:01;100620.69;;;13.90;48.43
17311;BME280;8773;43.300;0.394;2023-04-16T09:34:52;100626.69;;;13.84;48.01
17311;BME280;8773;43.300;0.394;2023-04-16T09:37:21;100623.31;;;13.64;48.90
17311;BME280;8773;43.300;0.394;2023-04-16T09:39:54;100622.84;;;13.86;48.35
17311;BME280;8773;43.300;0.394;2023-04-16T09:42:25;100616.78;;;14.02;47.81
17311;BME280;8773;43.300;0.394;2023-04-16T09:44:57;100616.72;;;14.20;47.71
17311;BME280;8773;43.300;0.394;2023-04-16T09:47:38;100619.25;;;14.47;46.46
17311;BME280;8773;43.300;0.394;2023-04-16T09:50:09;100619.34;;;14.37;47.72
17311;BME280;8773;43.300;0.394;2023-04-16T09:52:46;100606.81;;;14.46;47.49
17311;BME280;8773;43.300;0.394;2023-04-16T09:55:14;100606.22;;;14.68;47.05
17311;BME280;8773;43.300;0.394;2023-04-16T09:57:42;100610.41;;;14.63;46.89
17311;BME280;8773;43.300;0.394;2023-04-16T10:00:11;100607.97;;;14.18;47.25
17311;BME280;8773;43.300;0.394;2023-04-16T10:02:39;100608.03;;;14.52;46.92
17311;BME280;8773;43.300;0.394;2023-04-16T10:05:13;100607.50;;;14.82;46.65
17311;BME280;8773;43.300;0.394;2023-04-16T10:07:44;100605.13;;;14.79;47.12
17311;BME280;8773;43.300;0.394;2023-04-16T10:10:14;100608.44;;;14.39;47.54
17311;BME280;8773;43.300;0.394;2023-04-16T10:12:42;100595.63;;;14.67;46.93
17311;BME280;8773;43.300;0.394;2023-04-16T10:15:10;100596.16;;;14.70;48.69
17311;BME280;8773;43.300;0.394;2023-04-16T10:17:38;100601.53;;;14.70;46.68
17311;BME280;8773;43.300;0.394;2023-04-16T10:20:07;100598.13;;;14.52;47.74
17311;BME280;8773;43.300;0.394;2023-04-16T10:22:37;100605.50;;;14.58;47.03
17311;BME280;8773;43.300;0.394;2023-04-16T10:25:06;100600.13;;;14.58;47.23
17311;BME280;8773;43.300;0.394;2023-04-16T10:27:35;100593.03;;;14.75;47.94
17311;BME280;8773;43.300;0.394;2023-04-16T10:30:05;100581.16;;;15.02;47.46
17311;BME280;8773;43.300;0.394;2023-04-16T10:32:35;100591.53;;;13.95;47.50
17311;BME280;8773;43.300;0.394;2023-04-16T10:35:04;100591.31;;;14.14;48.17
17311;BME280;8773;43.300;0.394;2023-04-16T10:37:32;100586.84;;;14.57;47.31
17311;BME280;8773;43.300;0.394;2023-04-16T10:40:21;100581.34;;;15.00;45.64
17311;BME280;8773;43.300;0.394;2023-04-16T10:42:53;100586.06;;;15.06;44.69
17311;BME280;8773;43.300;0.394;2023-04-16T10:45:26;100578.06;;;15.55;44.55
17311;BME280;8773;43.300;0.394;2023-04-16T10:47:56;100576.41;;;15.87;44.55
17311;BME280;8773;43.300;0.394;2023-04-16T10:50:33;100581.94;;;15.61;43.41
17311;BME280;8773;43.300;0.394;2023-04-16T10:53:17;100574.34;;;15.48;43.44
17311;BME280;8773;43.300;0.394;2023-04-16T10:56:09;100576.75;;;15.84;45.03
17311;BME280;8773;43.300;0.394;2023-04-16T10:58:48;100564.91;;;16.25;42.59
17311;BME280;8773;43.300;0.394;2023-04-16T11:01:16;100580.94;;;15.70;41.27
17311;BME280;8773;43.300;0.394;2023-04-16T11:03:46;100570.50;;;15.67;36.86
17311;BME280;8773;43.300;0.394;2023-04-16T11:06:16;100562.22;;;15.20;38.47
17311;BME280;8773;43.300;0.394;2023-04-16T11:08:44;100554.63;;;14.99;37.37
17311;BME280;8773;43.300;0.394;2023-04-16T11:11:22;100551.59;;;15.10;38.36
17311;BME280;8773;43.300;0.394;2023-04-16T11:13:54;100541.53;;;15.45;37.58
17311;BME280;8773;43.300;0.394;2023-04-16T11:16:23;100542.22;;;15.87;37.80
17311;BME280;8773;43.300;0.394;2023-04-16T11:18:53;100535.19;;;15.78;38.26
17311;BME280;8773;43.300;0.394;2023-04-16T11:21:22;100534.13;;;16.03;39.04
17311;BME280;8773;43.300;0.394;2023-04-16T11:23:52;100540.25;;;15.81;37.32
17311;BME280;8773;43.300;0.394;2023-04-16T11:26:24;100541.56;;;15.61;37.36
17311;BME280;8773;43.300;0.394;2023-04-16T11:28:53;100547.13;;;15.67;35.66
17311;BME280;8773;43.300;0.394;2023-04-16T11:31:21;100542.06;;;15.89;35.95
17311;BME280;8773;43.300;0.394;2023-04-16T11:33:50;100531.13;;;15.66;35.55
17311;BME280;8773;43.300;0.394;2023-04-16T11:36:18;100523.19;;;15.97;35.51
17311;BME280;8773;43.300;0.394;2023-04-16T11:38:46;100528.78;;;15.55;36.45
17311;BME280;8773;43.300;0.394;2023-04-16T11:41:18;100514.09;;;16.06;35.83
17311;BME280;8773;43.300;0.394;2023-04-16T11:43:48;100503.28;;;16.14;37.08
17311;BME280;8773;43.300;0.394;2023-04-16T11:46:16;100501.91;;;16.65;36.21
17311;BME280;8773;43.300;0.394;2023-04-16T11:48:54;100517.78;;;16.13;35.92
17311;BME280;8773;43.300;0.394;2023-04-16T11:51:22;100515.63;;;15.92;37.77
17311;BME280;8773;43.300;0.394;2023-04-16T11:53:51;100508.72;;;15.90;38.53
17311;BME280;8773;43.300;0.394;2023-04-16T11:56:25;100511.25;;;15.91;37.61
17311;BME280;8773;43.300;0.394;2023-04-16T11:59:09;100508.28;;;15.78;37.66
17311;BME280;8773;43.300;0.394;2023-04-16T12:01:39;100503.66;;;15.95;38.48
17311;BME280;8773;43.300;0.394;2023-04-16T12:04:08;100510.28;;;16.31;39.44
17311;BME280;8773;43.300;0.394;2023-04-16T12:06:36;100503.16;;;15.99;39.06
17311;BME280;8773;43.300;0.394;2023-04-16T12:09:23;100498.59;;;16.08;39.34
17311;BME280;8773;43.300;0.394;2023-04-16T12:11:52;100498.91;;;16.13;38.65
17311;BME280;8773;43.300;0.394;2023-04-16T12:14:21;100493.28;;;16.31;38.07
17311;BME280;8773;43.300;0.394;2023-04-16T12:16:50;100491.19;;;16.49;35.04
17311;BME280;8773;43.300;0.394;2023-04-16T12:19:21;100482.59;;;16.85;35.96
17311;BME280;8773;43.300;0.394;2023-04-16T12:21:51;100478.16;;;16.61;36.51
17311;BME280;8773;43.300;0.394;2023-04-16T12:24:20;100476.84;;;16.57;36.39
17311;BME280;8773;43.300;0.394;2023-04-16T12:26:53;100474.63;;;17.14;37.11
17311;BME280;8773;43.300;0.394;2023-04-16T12:29:25;100486.19;;;17.60;35.34
17311;BME280;8773;43.300;0.394;2023-04-16T12:31:53;100476.06;;;17.62;34.51
17311;BME280;8773;43.300;0.394;2023-04-16T12:34:21;100484.59;;;17.51;35.50
17311;BME280;8773;43.300;0.394;2023-04-16T12:37:09;100482.16;;;17.19;37.33
17311;BME280;8773;43.300;0.394;2023-04-16T12:39:38;100485.28;;;16.07;36.81
17311;BME280;8773;43.300;0.394;2023-04-16T12:42:06;100494.13;;;15.11;38.81
17311;BME280;8773;43.300;0.394;2023-04-16T12:44:38;100483.19;;;15.21;37.99
17311;BME280;8773;43.300;0.394;2023-04-16T12:47:06;100479.31;;;15.56;38.32
17311;BME280;8773;43.300;0.394;2023-04-16T12:49:37;100480.06;;;16.13;37.77
17311;BME280;8773;43.300;0.394;2023-04-16T12:52:05;100478.19;;;16.53;37.46
17311;BME280;8773;43.300;0.394;2023-04-16T12:54:33;100476.66;;;16.27;35.93
17311;BME280;8773;43.300;0.394;2023-04-16T12:57:01;100468.78;;;16.49;36.85
17311;BME280;8773;43.300;0.394;2023-04-16T12:59:29;100474.44;;;16.62;36.10
17311;BME280;8773;43.300;0.394;2023-04-16T13:01:59;100735.50;;;16.47;37.22
17311;BME280;8773;43.300;0.394;2023-04-16T13:04:28;100478.84;;;15.36;39.38
17311;BME280;8773;43.300;0.394;2023-04-16T13:06:56;100479.50;;;15.38;39.17
17311;BME280;8773;43.300;0.394;2023-04-16T13:09:24;100475.09;;;15.61;39.63
17311;BME280;8773;43.300;0.394;2023-04-16T13:11:52;100471.41;;;15.46;38.36
17311;BME280;8773;43.300;0.394;2023-04-16T13:14:20;100471.44;;;15.30;39.08
17311;BME280;8773;43.300;0.394;2023-04-16T13:16:51;100466.72;;;15.32;39.64